Hauptseite
METAR-TAF:

METAR-TAF

Flughäfen :

Port Hawkesbury, Neuschottland, Kanada

Breite: 45-40N, Länge: 061-23W, Höhe: 114 m

Beobachtung

Neuester Wetterbericht von vor 46 Minuten, um 05:00 UTC
Wind 15 kt aus Ost/Nordost, Böen bis zu 22 kt
Temperatur 11°C
Luftfeuchtigkeit 94%
Luftdruck 1011 hPa
Sichtweite: 14.5 km
Geschlossene Wolkendecke in der Höhe von 1300 ft

METAR: CYPD 190500Z AUTO 07015G22KT 9SM OVC013 11/10 A2984 RMK SLP106

Zeit: 02:46 (05:46 UTC)


TAF: fehlend

Wetterbeobachtungen und Prognosen von mehr als 4000 Flughäfen (METAR und TAF Bericht).

Die verfügbaren Stationen werden durch gelbe und rote Markierungen auf der Karte dargestellt.

Führen Sie die Maus auf sie, um den Namen der Station zu sehen.

Darauf klicken, um die Beobachtung von Wetterbeobachtungen und Prognosen zu sehen.

Um die Karte zu ändern : klicken Sie auf den grünen Tasten mit einem schwarzen Kreuz Zum Vergrößern, auf den grünen Button mit einem Gedankenstrich zu verkleinern, oder auf die grünen Pfeile für benachbarte Karten.


METAR-TAF: